sensor_id;sensor_type;location;lat;lon;timestamp;P1;P2;P0
55043;PMS5003;54902;50.420;18.854;2023-12-20T00:00:19;15;15;10
55043;PMS5003;54902;50.420;18.854;2023-12-20T00:00:51;15;15;10
55043;PMS5003;54902;50.420;18.854;2023-12-20T00:01:23;15;15;10
55043;PMS5003;54902;50.420;18.854;2023-12-20T00:01:54;15;15;10
55043;PMS5003;54902;50.420;18.854;2023-12-20T00:02:25;15;15;10
55043;PMS5003;54902;50.420;18.854;2023-12-20T00:02:56;15;15;10
55043;PMS5003;54902;50.420;18.854;2023-12-20T00:03:29;15;15;10
55043;PMS5003;54902;50.420;18.854;2023-12-20T00:04:00;15;15;10
55043;PMS5003;54902;50.420;18.854;2023-12-20T00:04:32;15;15;10
55043;PMS5003;54902;50.420;18.854;2023-12-20T00:05:04;15;15;10
55043;PMS5003;54902;50.420;18.854;2023-12-20T00:05:36;15;15;10
55043;PMS5003;54902;50.420;18.854;2023-12-20T00:06:11;15;15;10
55043;PMS5003;54902;50.420;18.854;2023-12-20T00:06:43;15;15;10
55043;PMS5003;54902;50.420;18.854;2023-12-20T00:07:15;15;15;10
55043;PMS5003;54902;50.420;18.854;2023-12-20T00:07:47;15;15;10
55043;PMS5003;54902;50.420;18.854;2023-12-20T00:08:18;15;15;10
55043;PMS5003;54902;50.420;18.854;2023-12-20T00:08:49;15;15;10
55043;PMS5003;54902;50.420;18.854;2023-12-20T00:09:20;15;15;10
55043;PMS5003;54902;50.420;18.854;2023-12-20T00:09:52;15;15;10
55043;PMS5003;54902;50.420;18.854;2023-12-20T00:10:23;15;15;10
55043;PMS5003;54902;50.420;18.854;2023-12-20T00:10:54;15;15;10
55043;PMS5003;54902;50.420;18.854;2023-12-20T00:11:26;15;15;10
55043;PMS5003;54902;50.420;18.854;2023-12-20T00:11:57;15;15;10
55043;PMS5003;54902;50.420;18.854;2023-12-20T00:12:28;15;15;10
55043;PMS5003;54902;50.420;18.854;2023-12-20T00:12:59;15;15;10
55043;PMS5003;54902;50.420;18.854;2023-12-20T00:13:31;15;15;10
55043;PMS5003;54902;50.420;18.854;2023-12-20T00:14:02;15;15;10
55043;PMS5003;54902;50.420;18.854;2023-12-20T00:14:33;15;15;10
55043;PMS5003;54902;50.420;18.854;2023-12-20T00:15:05;15;15;10
55043;PMS5003;54902;50.420;18.854;2023-12-20T00:15:37;15;15;10
55043;PMS5003;54902;50.420;18.854;2023-12-20T00:16:09;13;13;9
55043;PMS5003;54902;50.420;18.854;2023-12-20T00:16:40;13;13;8
55043;PMS5003;54902;50.420;18.854;2023-12-20T00:17:11;13;13;8
55043;PMS5003;54902;50.420;18.854;2023-12-20T00:17:42;13;13;8
55043;PMS5003;54902;50.420;18.854;2023-12-20T00:18:14;13;13;8
55043;PMS5003;54902;50.420;18.854;2023-12-20T00:18:45;13;13;8
55043;PMS5003;54902;50.420;18.854;2023-12-20T00:19:16;13;13;8
55043;PMS5003;54902;50.420;18.854;2023-12-20T00:19:48;13;13;8
55043;PMS5003;54902;50.420;18.854;2023-12-20T00:20:19;13;13;8
55043;PMS5003;54902;50.420;18.854;2023-12-20T00:20:50;13;13;8
55043;PMS5003;54902;50.420;18.854;2023-12-20T00:21:21;13;13;8
55043;PMS5003;54902;50.420;18.854;2023-12-20T00:21:53;19;19;12
55043;PMS5003;54902;50.420;18.854;2023-12-20T00:22:24;19;19;12
55043;PMS5003;54902;50.420;18.854;2023-12-20T00:22:56;19;19;12
55043;PMS5003;54902;50.420;18.854;2023-12-20T00:23:31;19;19;12
55043;PMS5003;54902;50.420;18.854;2023-12-20T00:24:02;19;19;12
55043;PMS5003;54902;50.420;18.854;2023-12-20T00:24:34;19;19;12
55043;PMS5003;54902;50.420;18.854;2023-12-20T00:25:08;19;19;12
55043;PMS5003;54902;50.420;18.854;2023-12-20T00:25:39;19;19;12
55043;PMS5003;54902;50.420;18.854;2023-12-20T00:26:11;19;19;12
55043;PMS5003;54902;50.420;18.854;2023-12-20T00:26:42;19;19;12
55043;PMS5003;54902;50.420;18.854;2023-12-20T00:27:13;19;19;12
55043;PMS5003;54902;50.420;18.854;2023-12-20T00:27:44;19;19;12
55043;PMS5003;54902;50.420;18.854;2023-12-20T00:28:15;19;19;12
55043;PMS5003;54902;50.420;18.854;2023-12-20T00:28:46;19;19;12
55043;PMS5003;54902;50.420;18.854;2023-12-20T00:29:18;19;19;12
55043;PMS5003;54902;50.420;18.854;2023-12-20T00:29:49;19;19;12
55043;PMS5003;54902;50.420;18.854;2023-12-20T00:30:20;19;19;12
55043;PMS5003;54902;50.420;18.854;2023-12-20T00:30:52;19;19;12
55043;PMS5003;54902;50.420;18.854;2023-12-20T00:31:23;19;19;12
55043;PMS5003;54902;50.420;18.854;2023-12-20T00:31:54;19;19;12
55043;PMS5003;54902;50.420;18.854;2023-12-20T00:32:28;14;14;8
55043;PMS5003;54902;50.420;18.854;2023-12-20T00:32:59;14;14;8
55043;PMS5003;54902;50.420;18.854;2023-12-20T00:33:31;14;14;8
55043;PMS5003;54902;50.420;18.854;2023-12-20T00:34:02;14;14;8
55043;PMS5003;54902;50.420;18.854;2023-12-20T00:34:33;14;14;8
55043;PMS5003;54902;50.420;18.854;2023-12-20T00:35:18;14;14;8
55043;PMS5003;54902;50.420;18.854;2023-12-20T00:35:49;14;14;8
55043;PMS5003;54902;50.420;18.854;2023-12-20T00:36:21;22;21;12
55043;PMS5003;54902;50.420;18.854;2023-12-20T00:36:52;22;21;12
55043;PMS5003;54902;50.420;18.854;2023-12-20T00:37:25;22;21;12
55043;PMS5003;54902;50.420;18.854;2023-12-20T00:37:58;16;16;10
55043;PMS5003;54902;50.420;18.854;2023-12-20T00:38:30;16;16;10
55043;PMS5003;54902;50.420;18.854;2023-12-20T00:39:01;16;16;10
55043;PMS5003;54902;50.420;18.854;2023-12-20T00:39:37;16;16;10
55043;PMS5003;54902;50.420;18.854;2023-12-20T00:40:09;16;16;10
55043;PMS5003;54902;50.420;18.854;2023-12-20T00:40:47;16;16;10
55043;PMS5003;54902;50.420;18.854;2023-12-20T00:41:20;16;16;10
55043;PMS5003;54902;50.420;18.854;2023-12-20T00:41:51;16;16;10
55043;PMS5003;54902;50.420;18.854;2023-12-20T00:42:22;16;16;10
55043;PMS5003;54902;50.420;18.854;2023-12-20T00:42:53;16;16;10
55043;PMS5003;54902;50.420;18.854;2023-12-20T00:43:24;21;21;13
55043;PMS5003;54902;50.420;18.854;2023-12-20T00:43:55;21;21;13
55043;PMS5003;54902;50.420;18.854;2023-12-20T00:44:26;21;21;13
55043;PMS5003;54902;50.420;18.854;2023-12-20T00:44:58;21;21;13
55043;PMS5003;54902;50.420;18.854;2023-12-20T00:45:30;21;21;13
55043;PMS5003;54902;50.420;18.854;2023-12-20T00:46:01;21;21;13
55043;PMS5003;54902;50.420;18.854;2023-12-20T00:46:32;21;21;13
55043;PMS5003;54902;50.420;18.854;2023-12-20T00:47:04;21;21;13
55043;PMS5003;54902;50.420;18.854;2023-12-20T00:47:35;21;21;13
55043;PMS5003;54902;50.420;18.854;2023-12-20T00:48:06;21;21;13
55043;PMS5003;54902;50.420;18.854;2023-12-20T00:48:38;21;21;13
55043;PMS5003;54902;50.420;18.854;2023-12-20T00:49:09;21;21;13
55043;PMS5003;54902;50.420;18.854;2023-12-20T00:49:40;21;21;13
55043;PMS5003;54902;50.420;18.854;2023-12-20T00:50:11;21;21;13
55043;PMS5003;54902;50.420;18.854;2023-12-20T00:50:42;21;21;13
55043;PMS5003;54902;50.420;18.854;2023-12-20T00:51:13;21;21;13
55043;PMS5003;54902;50.420;18.854;2023-12-20T00:51:44;21;21;13
55043;PMS5003;54902;50.420;18.854;2023-12-20T00:52:18;21;21;13
55043;PMS5003;54902;50.420;18.854;2023-12-20T00:52:49;21;21;13
55043;PMS5003;54902;50.420;18.854;2023-12-20T00:53:20;21;21;13
55043;PMS5003;54902;50.420;18.854;2023-12-20T00:53:51;21;21;13
55043;PMS5003;54902;50.420;18.854;2023-12-20T00:54:25;21;21;13
55043;PMS5003;54902;50.420;18.854;2023-12-20T00:54:56;21;21;13
55043;PMS5003;54902;50.420;18.854;2023-12-20T00:55:27;21;21;13
55043;PMS5003;54902;50.420;18.854;2023-12-20T00:55:58;21;21;13
55043;PMS5003;54902;50.420;18.854;2023-12-20T00:56:29;15;15;9
55043;PMS5003;54902;50.420;18.854;2023-12-20T00:57:01;15;15;9
55043;PMS5003;54902;50.420;18.854;2023-12-20T00:57:32;15;15;9
55043;PMS5003;54902;50.420;18.854;2023-12-20T00:58:03;15;15;9
55043;PMS5003;54902;50.420;18.854;2023-12-20T00:58:34;15;15;9
55043;PMS5003;54902;50.420;18.854;2023-12-20T00:59:05;21;21;13
55043;PMS5003;54902;50.420;18.854;2023-12-20T00:59:37;21;21;13
55043;PMS5003;54902;50.420;18.854;2023-12-20T01:00:08;21;21;13
55043;PMS5003;54902;50.420;18.854;2023-12-20T01:00:40;21;21;13
55043;PMS5003;54902;50.420;18.854;2023-12-20T01:01:13;21;21;13
55043;PMS5003;54902;50.420;18.854;2023-12-20T01:01:44;21;21;13
55043;PMS5003;54902;50.420;18.854;2023-12-20T01:02:15;21;21;13
55043;PMS5003;54902;50.420;18.854;2023-12-20T01:02:47;21;21;13
55043;PMS5003;54902;50.420;18.854;2023-12-20T01:03:21;21;21;13
55043;PMS5003;54902;50.420;18.854;2023-12-20T01:03:53;21;21;13
55043;PMS5003;54902;50.420;18.854;2023-12-20T01:04:25;14;14;8
55043;PMS5003;54902;50.420;18.854;2023-12-20T01:04:56;14;14;8
55043;PMS5003;54902;50.420;18.854;2023-12-20T01:05:27;14;14;8
55043;PMS5003;54902;50.420;18.854;2023-12-20T01:05:59;14;14;8
55043;PMS5003;54902;50.420;18.854;2023-12-20T01:06:30;14;14;8
55043;PMS5003;54902;50.420;18.854;2023-12-20T01:07:01;14;14;8
55043;PMS5003;54902;50.420;18.854;2023-12-20T01:07:32;14;14;8
55043;PMS5003;54902;50.420;18.854;2023-12-20T01:08:03;14;14;8
55043;PMS5003;54902;50.420;18.854;2023-12-20T01:08:35;14;14;8
55043;PMS5003;54902;50.420;18.854;2023-12-20T01:09:06;14;14;8
55043;PMS5003;54902;50.420;18.854;2023-12-20T01:09:36;27;27;15
55043;PMS5003;54902;50.420;18.854;2023-12-20T01:10:08;27;27;15
55043;PMS5003;54902;50.420;18.854;2023-12-20T01:10:39;27;27;15
55043;PMS5003;54902;50.420;18.854;2023-12-20T01:11:10;27;27;15
55043;PMS5003;54902;50.420;18.854;2023-12-20T01:11:41;27;27;15
55043;PMS5003;54902;50.420;18.854;2023-12-20T01:12:12;27;27;15
55043;PMS5003;54902;50.420;18.854;2023-12-20T01:12:43;27;27;15
55043;PMS5003;54902;50.420;18.854;2023-12-20T01:13:14;27;27;15
55043;PMS5003;54902;50.420;18.854;2023-12-20T01:13:45;27;27;15
55043;PMS5003;54902;50.420;18.854;2023-12-20T01:14:16;27;27;15
55043;PMS5003;54902;50.420;18.854;2023-12-20T01:14:47;27;27;15
55043;PMS5003;54902;50.420;18.854;2023-12-20T01:15:18;27;27;15
55043;PMS5003;54902;50.420;18.854;2023-12-20T01:15:49;27;27;15
55043;PMS5003;54902;50.420;18.854;2023-12-20T01:16:20;27;27;15
55043;PMS5003;54902;50.420;18.854;2023-12-20T01:16:51;27;27;15
55043;PMS5003;54902;50.420;18.854;2023-12-20T01:17:22;27;27;15
55043;PMS5003;54902;50.420;18.854;2023-12-20T01:17:53;27;27;15
55043;PMS5003;54902;50.420;18.854;2023-12-20T01:18:23;27;27;15
55043;PMS5003;54902;50.420;18.854;2023-12-20T01:18:54;27;27;15
55043;PMS5003;54902;50.420;18.854;2023-12-20T01:19:25;27;27;15
55043;PMS5003;54902;50.420;18.854;2023-12-20T01:19:59;27;27;15
55043;PMS5003;54902;50.420;18.854;2023-12-20T01:20:30;27;27;15
55043;PMS5003;54902;50.420;18.854;2023-12-20T01:21:02;27;27;15
55043;PMS5003;54902;50.420;18.854;2023-12-20T01:21:33;27;27;15
55043;PMS5003;54902;50.420;18.854;2023-12-20T01:22:04;27;27;15
55043;PMS5003;54902;50.420;18.854;2023-12-20T01:22:35;27;27;15
55043;PMS5003;54902;50.420;18.854;2023-12-20T01:23:06;27;27;15
55043;PMS5003;54902;50.420;18.854;2023-12-20T01:23:37;27;27;15
55043;PMS5003;54902;50.420;18.854;2023-12-20T01:24:09;27;27;15
55043;PMS5003;54902;50.420;18.854;2023-12-20T01:24:40;27;27;15
55043;PMS5003;54902;50.420;18.854;2023-12-20T01:25:11;27;27;15
55043;PMS5003;54902;50.420;18.854;2023-12-20T01:25:42;27;27;15
55043;PMS5003;54902;50.420;18.854;2023-12-20T01:26:14;18;18;12
55043;PMS5003;54902;50.420;18.854;2023-12-20T01:26:45;18;18;12
55043;PMS5003;54902;50.420;18.854;2023-12-20T01:27:16;18;18;12
55043;PMS5003;54902;50.420;18.854;2023-12-20T01:27:47;18;18;12
55043;PMS5003;54902;50.420;18.854;2023-12-20T01:28:18;18;18;12
55043;PMS5003;54902;50.420;18.854;2023-12-20T01:28:49;18;18;12
55043;PMS5003;54902;50.420;18.854;2023-12-20T01:29:20;18;18;12
55043;PMS5003;54902;50.420;18.854;2023-12-20T01:29:51;18;18;12
55043;PMS5003;54902;50.420;18.854;2023-12-20T01:30:22;23;23;17
55043;PMS5003;54902;50.420;18.854;2023-12-20T01:30:53;23;23;17
55043;PMS5003;54902;50.420;18.854;2023-12-20T01:31:24;23;23;17
55043;PMS5003;54902;50.420;18.854;2023-12-20T01:32:09;23;23;17
55043;PMS5003;54902;50.420;18.854;2023-12-20T01:32:42;23;23;17
55043;PMS5003;54902;50.420;18.854;2023-12-20T01:33:13;23;23;17
55043;PMS5003;54902;50.420;18.854;2023-12-20T01:33:44;23;23;17
55043;PMS5003;54902;50.420;18.854;2023-12-20T01:34:15;23;23;17
55043;PMS5003;54902;50.420;18.854;2023-12-20T01:34:46;23;23;17
55043;PMS5003;54902;50.420;18.854;2023-12-20T01:35:18;23;23;17
55043;PMS5003;54902;50.420;18.854;2023-12-20T01:35:49;24;24;18
55043;PMS5003;54902;50.420;18.854;2023-12-20T01:36:20;24;24;18
55043;PMS5003;54902;50.420;18.854;2023-12-20T01:36:51;24;24;18
55043;PMS5003;54902;50.420;18.854;2023-12-20T01:37:22;24;24;18
55043;PMS5003;54902;50.420;18.854;2023-12-20T01:37:56;24;24;18
55043;PMS5003;54902;50.420;18.854;2023-12-20T01:38:27;24;24;18
55043;PMS5003;54902;50.420;18.854;2023-12-20T01:38:58;24;24;18
55043;PMS5003;54902;50.420;18.854;2023-12-20T01:39:29;24;24;18
55043;PMS5003;54902;50.420;18.854;2023-12-20T01:40:00;24;24;18
55043;PMS5003;54902;50.420;18.854;2023-12-20T01:40:31;22;22;16
55043;PMS5003;54902;50.420;18.854;2023-12-20T01:41:01;16;16;8
55043;PMS5003;54902;50.420;18.854;2023-12-20T01:41:32;16;16;8
55043;PMS5003;54902;50.420;18.854;2023-12-20T01:42:03;16;16;8
55043;PMS5003;54902;50.420;18.854;2023-12-20T01:42:35;16;16;8
55043;PMS5003;54902;50.420;18.854;2023-12-20T01:43:08;16;16;8
55043;PMS5003;54902;50.420;18.854;2023-12-20T01:43:42;16;16;8
55043;PMS5003;54902;50.420;18.854;2023-12-20T01:44:16;16;16;8
55043;PMS5003;54902;50.420;18.854;2023-12-20T01:44:47;16;16;8
55043;PMS5003;54902;50.420;18.854;2023-12-20T01:45:18;16;16;8
55043;PMS5003;54902;50.420;18.854;2023-12-20T01:45:49;16;16;8
55043;PMS5003;54902;50.420;18.854;2023-12-20T01:46:20;25;24;13
55043;PMS5003;54902;50.420;18.854;2023-12-20T01:46:51;25;24;13
55043;PMS5003;54902;50.420;18.854;2023-12-20T01:47:22;25;24;13
55043;PMS5003;54902;50.420;18.854;2023-12-20T01:47:54;25;24;13
55043;PMS5003;54902;50.420;18.854;2023-12-20T01:48:26;25;24;13
55043;PMS5003;54902;50.420;18.854;2023-12-20T01:48:58;25;24;13
55043;PMS5003;54902;50.420;18.854;2023-12-20T01:49:29;25;24;13
55043;PMS5003;54902;50.420;18.854;2023-12-20T01:50:01;25;24;13
55043;PMS5003;54902;50.420;18.854;2023-12-20T01:50:35;25;24;13
55043;PMS5003;54902;50.420;18.854;2023-12-20T01:51:08;25;24;13
55043;PMS5003;54902;50.420;18.854;2023-12-20T01:51:40;25;24;13
55043;PMS5003;54902;50.420;18.854;2023-12-20T01:52:11;25;24;13
55043;PMS5003;54902;50.420;18.854;2023-12-20T01:52:43;25;24;13
55043;PMS5003;54902;50.420;18.854;2023-12-20T01:53:15;25;24;13
55043;PMS5003;54902;50.420;18.854;2023-12-20T01:53:47;25;24;13
55043;PMS5003;54902;50.420;18.854;2023-12-20T01:54:18;25;24;13
55043;PMS5003;54902;50.420;18.854;2023-12-20T01:54:51;25;24;13
55043;PMS5003;54902;50.420;18.854;2023-12-20T01:55:22;25;24;13
55043;PMS5003;54902;50.420;18.854;2023-12-20T01:55:54;25;24;13
55043;PMS5003;54902;50.420;18.854;2023-12-20T01:56:26;25;24;13
55043;PMS5003;54902;50.420;18.854;2023-12-20T01:56:59;25;24;13
55043;PMS5003;54902;50.420;18.854;2023-12-20T01:57:30;25;24;13
55043;PMS5003;54902;50.420;18.854;2023-12-20T01:58:02;25;24;13
55043;PMS5003;54902;50.420;18.854;2023-12-20T01:58:34;25;24;13
55043;PMS5003;54902;50.420;18.854;2023-12-20T01:59:07;17;16;9
55043;PMS5003;54902;50.420;18.854;2023-12-20T01:59:39;17;16;9
55043;PMS5003;54902;50.420;18.854;2023-12-20T02:00:11;17;16;9
55043;PMS5003;54902;50.420;18.854;2023-12-20T02:00:43;17;16;9
55043;PMS5003;54902;50.420;18.854;2023-12-20T02:01:13;17;16;9
55043;PMS5003;54902;50.420;18.854;2023-12-20T02:01:45;17;16;9
55043;PMS5003;54902;50.420;18.854;2023-12-20T02:02:16;22;21;13
55043;PMS5003;54902;50.420;18.854;2023-12-20T02:02:47;22;21;13
55043;PMS5003;54902;50.420;18.854;2023-12-20T02:03:20;22;21;13
55043;PMS5003;54902;50.420;18.854;2023-12-20T02:03:51;22;21;13
55043;PMS5003;54902;50.420;18.854;2023-12-20T02:04:23;22;21;13
55043;PMS5003;54902;50.420;18.854;2023-12-20T02:04:55;22;21;13
55043;PMS5003;54902;50.420;18.854;2023-12-20T02:05:26;19;18;12
55043;PMS5003;54902;50.420;18.854;2023-12-20T02:05:58;19;18;12
55043;PMS5003;54902;50.420;18.854;2023-12-20T02:06:29;19;18;12
55043;PMS5003;54902;50.420;18.854;2023-12-20T02:07:03;19;18;12
55043;PMS5003;54902;50.420;18.854;2023-12-20T02:07:35;19;19;13
55043;PMS5003;54902;50.420;18.854;2023-12-20T02:08:06;19;19;13
55043;PMS5003;54902;50.420;18.854;2023-12-20T02:08:37;19;19;13
55043;PMS5003;54902;50.420;18.854;2023-12-20T02:09:08;19;19;13
55043;PMS5003;54902;50.420;18.854;2023-12-20T02:09:39;19;19;13
55043;PMS5003;54902;50.420;18.854;2023-12-20T02:10:11;19;19;13
55043;PMS5003;54902;50.420;18.854;2023-12-20T02:10:42;19;19;13
55043;PMS5003;54902;50.420;18.854;2023-12-20T02:11:13;19;19;13
55043;PMS5003;54902;50.420;18.854;2023-12-20T02:11:44;19;19;13
55043;PMS5003;54902;50.420;18.854;2023-12-20T02:12:18;19;19;13
55043;PMS5003;54902;50.420;18.854;2023-12-20T02:12:54;25;24;16
55043;PMS5003;54902;50.420;18.854;2023-12-20T02:13:25;25;24;16
55043;PMS5003;54902;50.420;18.854;2023-12-20T02:13:57;25;24;16
55043;PMS5003;54902;50.420;18.854;2023-12-20T02:14:28;25;24;16
55043;PMS5003;54902;50.420;18.854;2023-12-20T02:14:58;25;24;16
55043;PMS5003;54902;50.420;18.854;2023-12-20T02:15:29;25;24;16
55043;PMS5003;54902;50.420;18.854;2023-12-20T02:16:00;25;24;16
55043;PMS5003;54902;50.420;18.854;2023-12-20T02:16:31;25;24;16
55043;PMS5003;54902;50.420;18.854;2023-12-20T02:17:03;21;20;13
55043;PMS5003;54902;50.420;18.854;2023-12-20T02:17:34;21;20;13
55043;PMS5003;54902;50.420;18.854;2023-12-20T02:18:04;12;12;8
55043;PMS5003;54902;50.420;18.854;2023-12-20T02:18:36;12;12;8
55043;PMS5003;54902;50.420;18.854;2023-12-20T02:19:09;12;12;8
55043;PMS5003;54902;50.420;18.854;2023-12-20T02:19:44;12;12;8
55043;PMS5003;54902;50.420;18.854;2023-12-20T02:20:15;12;12;8
55043;PMS5003;54902;50.420;18.854;2023-12-20T02:20:45;12;12;8
55043;PMS5003;54902;50.420;18.854;2023-12-20T02:21:16;12;12;8
55043;PMS5003;54902;50.420;18.854;2023-12-20T02:21:47;12;12;8
55043;PMS5003;54902;50.420;18.854;2023-12-20T02:22:18;14;14;10
55043;PMS5003;54902;50.420;18.854;2023-12-20T02:22:49;14;14;10
55043;PMS5003;54902;50.420;18.854;2023-12-20T02:23:20;6;6;0
55043;PMS5003;54902;50.420;18.854;2023-12-20T02:23:51;6;6;0
55043;PMS5003;54902;50.420;18.854;2023-12-20T02:24:22;6;6;0
55043;PMS5003;54902;50.420;18.854;2023-12-20T02:24:53;6;6;0
55043;PMS5003;54902;50.420;18.854;2023-12-20T02:25:23;6;6;0
55043;PMS5003;54902;50.420;18.854;2023-12-20T02:25:54;6;6;0
55043;PMS5003;54902;50.420;18.854;2023-12-20T02:26:25;6;6;0
55043;PMS5003;54902;50.420;18.854;2023-12-20T02:26:57;6;6;0
55043;PMS5003;54902;50.420;18.854;2023-12-20T02:27:28;6;6;0
55043;PMS5003;54902;50.420;18.854;2023-12-20T02:28:00;6;6;0
55043;PMS5003;54902;50.420;18.854;2023-12-20T02:28:31;10;10;0
55043;PMS5003;54902;50.420;18.854;2023-12-20T02:29:02;10;10;0
55043;PMS5003;54902;50.420;18.854;2023-12-20T02:29:34;10;10;0
55043;PMS5003;54902;50.420;18.854;2023-12-20T02:30:05;10;10;0
55043;PMS5003;54902;50.420;18.854;2023-12-20T02:30:37;10;10;0
55043;PMS5003;54902;50.420;18.854;2023-12-20T02:31:08;10;10;0
55043;PMS5003;54902;50.420;18.854;2023-12-20T02:31:39;10;10;0
55043;PMS5003;54902;50.420;18.854;2023-12-20T02:32:10;10;10;0
55043;PMS5003;54902;50.420;18.854;2023-12-20T02:32:41;10;10;0
55043;PMS5003;54902;50.420;18.854;2023-12-20T02:33:12;10;10;0
55043;PMS5003;54902;50.420;18.854;2023-12-20T02:33:45;10;10;0
55043;PMS5003;54902;50.420;18.854;2023-12-20T02:34:16;10;10;0
55043;PMS5003;54902;50.420;18.854;2023-12-20T02:34:47;10;10;0
55043;PMS5003;54902;50.420;18.854;2023-12-20T02:35:19;10;10;0
55043;PMS5003;54902;50.420;18.854;2023-12-20T02:35:49;10;10;0
55043;PMS5003;54902;50.420;18.854;2023-12-20T02:36:22;10;10;0
55043;PMS5003;54902;50.420;18.854;2023-12-20T02:36:53;10;10;0
55043;PMS5003;54902;50.420;18.854;2023-12-20T02:37:24;8;8;1
55043;PMS5003;54902;50.420;18.854;2023-12-20T02:37:55;8;8;1
55043;PMS5003;54902;50.420;18.854;2023-12-20T02:38:26;8;8;1
55043;PMS5003;54902;50.420;18.854;2023-12-20T02:38:57;23;22;13
55043;PMS5003;54902;50.420;18.854;2023-12-20T02:39:28;23;22;13
55043;PMS5003;54902;50.420;18.854;2023-12-20T02:39:59;23;22;13
55043;PMS5003;54902;50.420;18.854;2023-12-20T02:40:29;23;22;13
55043;PMS5003;54902;50.420;18.854;2023-12-20T02:41:00;23;22;13
55043;PMS5003;54902;50.420;18.854;2023-12-20T02:41:31;23;22;13
55043;PMS5003;54902;50.420;18.854;2023-12-20T02:42:02;23;22;13
55043;PMS5003;54902;50.420;18.854;2023-12-20T02:42:33;23;22;13
55043;PMS5003;54902;50.420;18.854;2023-12-20T02:43:04;23;22;13
55043;PMS5003;54902;50.420;18.854;2023-12-20T02:43:35;23;22;13
55043;PMS5003;54902;50.420;18.854;2023-12-20T02:44:06;33;31;19
55043;PMS5003;54902;50.420;18.854;2023-12-20T02:44:37;33;31;19
55043;PMS5003;54902;50.420;18.854;2023-12-20T02:45:08;33;31;19
55043;PMS5003;54902;50.420;18.854;2023-12-20T02:45:39;23;22;14
55043;PMS5003;54902;50.420;18.854;2023-12-20T02:46:10;23;22;14
55043;PMS5003;54902;50.420;18.854;2023-12-20T02:46:42;23;22;14
55043;PMS5003;54902;50.420;18.854;2023-12-20T02:47:13;23;22;14
55043;PMS5003;54902;50.420;18.854;2023-12-20T02:47:44;23;22;14
55043;PMS5003;54902;50.420;18.854;2023-12-20T02:48:14;23;22;14
55043;PMS5003;54902;50.420;18.854;2023-12-20T02:48:46;23;22;14
55043;PMS5003;54902;50.420;18.854;2023-12-20T02:49:17;36;36;22
55043;PMS5003;54902;50.420;18.854;2023-12-20T02:49:48;36;36;22
55043;PMS5003;54902;50.420;18.854;2023-12-20T02:50:20;36;36;22
55043;PMS5003;54902;50.420;18.854;2023-12-20T02:50:51;36;36;22
55043;PMS5003;54902;50.420;18.854;2023-12-20T02:51:22;36;36;22
55043;PMS5003;54902;50.420;18.854;2023-12-20T02:51:53;36;36;22
55043;PMS5003;54902;50.420;18.854;2023-12-20T02:52:24;36;36;22
55043;PMS5003;54902;50.420;18.854;2023-12-20T02:52:55;36;36;22
55043;PMS5003;54902;50.420;18.854;2023-12-20T02:53:26;36;36;22
55043;PMS5003;54902;50.420;18.854;2023-12-20T02:53:57;36;36;22
55043;PMS5003;54902;50.420;18.854;2023-12-20T02:54:28;39;39;24
55043;PMS5003;54902;50.420;18.854;2023-12-20T02:54:59;39;39;24
55043;PMS5003;54902;50.420;18.854;2023-12-20T02:55:29;39;39;24
55043;PMS5003;54902;50.420;18.854;2023-12-20T02:56:00;39;39;24
55043;PMS5003;54902;50.420;18.854;2023-12-20T02:56:34;39;39;24
55043;PMS5003;54902;50.420;18.854;2023-12-20T02:57:05;39;39;24
55043;PMS5003;54902;50.420;18.854;2023-12-20T02:57:36;39;39;24
55043;PMS5003;54902;50.420;18.854;2023-12-20T02:58:11;39;39;24
55043;PMS5003;54902;50.420;18.854;2023-12-20T02:58:42;39;39;24
55043;PMS5003;54902;50.420;18.854;2023-12-20T02:59:13;39;39;24
55043;PMS5003;54902;50.420;18.854;2023-12-20T02:59:44;39;39;24
55043;PMS5003;54902;50.420;18.854;2023-12-20T03:00:15;39;39;24
55043;PMS5003;54902;50.420;18.854;2023-12-20T03:00:46;39;39;24
55043;PMS5003;54902;50.420;18.854;2023-12-20T03:01:17;39;39;24
55043;PMS5003;54902;50.420;18.854;2023-12-20T03:01:48;39;39;24
55043;PMS5003;54902;50.420;18.854;2023-12-20T03:02:19;25;25;16
55043;PMS5003;54902;50.420;18.854;2023-12-20T03:02:50;25;25;16
55043;PMS5003;54902;50.420;18.854;2023-12-20T03:03:21;25;25;16
55043;PMS5003;54902;50.420;18.854;2023-12-20T03:03:52;25;25;16
55043;PMS5003;54902;50.420;18.854;2023-12-20T03:04:23;25;25;16
55043;PMS5003;54902;50.420;18.854;2023-12-20T03:04:54;18;18;13
55043;PMS5003;54902;50.420;18.854;2023-12-20T03:05:25;18;18;13
55043;PMS5003;54902;50.420;18.854;2023-12-20T03:05:56;18;18;13
55043;PMS5003;54902;50.420;18.854;2023-12-20T03:06:27;18;18;13
55043;PMS5003;54902;50.420;18.854;2023-12-20T03:06:57;18;18;13
55043;PMS5003;54902;50.420;18.854;2023-12-20T03:07:28;18;18;13
55043;PMS5003;54902;50.420;18.854;2023-12-20T03:07:59;18;18;13
55043;PMS5003;54902;50.420;18.854;2023-12-20T03:08:30;18;18;13
55043;PMS5003;54902;50.420;18.854;2023-12-20T03:09:01;18;18;13
55043;PMS5003;54902;50.420;18.854;2023-12-20T03:09:32;18;18;13
55043;PMS5003;54902;50.420;18.854;2023-12-20T03:10:03;22;22;16
55043;PMS5003;54902;50.420;18.854;2023-12-20T03:10:35;22;22;16
55043;PMS5003;54902;50.420;18.854;2023-12-20T03:11:06;22;22;16
55043;PMS5003;54902;50.420;18.854;2023-12-20T03:11:36;22;22;16
55043;PMS5003;54902;50.420;18.854;2023-12-20T03:12:07;22;22;16
55043;PMS5003;54902;50.420;18.854;2023-12-20T03:12:38;22;22;16
55043;PMS5003;54902;50.420;18.854;2023-12-20T03:13:09;22;22;16
55043;PMS5003;54902;50.420;18.854;2023-12-20T03:13:40;22;22;16
55043;PMS5003;54902;50.420;18.854;2023-12-20T03:14:11;22;22;16
55043;PMS5003;54902;50.420;18.854;2023-12-20T03:14:43;22;22;16
55043;PMS5003;54902;50.420;18.854;2023-12-20T03:15:14;22;22;16
55043;PMS5003;54902;50.420;18.854;2023-12-20T03:15:45;22;22;16
55043;PMS5003;54902;50.420;18.854;2023-12-20T03:16:16;22;22;16
55043;PMS5003;54902;50.420;18.854;2023-12-20T03:16:50;22;22;16
55043;PMS5003;54902;50.420;18.854;2023-12-20T03:17:21;15;15;10
55043;PMS5003;54902;50.420;18.854;2023-12-20T03:17:52;15;15;10
55043;PMS5003;54902;50.420;18.854;2023-12-20T03:18:23;15;15;10
55043;PMS5003;54902;50.420;18.854;2023-12-20T03:18:54;15;15;10
55043;PMS5003;54902;50.420;18.854;2023-12-20T03:19:25;15;15;10
55043;PMS5003;54902;50.420;18.854;2023-12-20T03:19:56;15;15;10